sensor_id;sensor_type;location;lat;lon;timestamp;P1;durP1;ratioP1;P2;durP2;ratioP2
41275;SDS011;27010;47.718;12.912;2023-03-13T00:01:45;8.93;;;3.50;;
41275;SDS011;27010;47.718;12.912;2023-03-13T00:04:48;5.37;;;2.60;;
41275;SDS011;27010;47.718;12.912;2023-03-13T00:07:50;3.83;;;1.53;;
41275;SDS011;27010;47.718;12.912;2023-03-13T00:10:51;6.67;;;2.40;;
41275;SDS011;27010;47.718;12.912;2023-03-13T00:13:54;8.30;;;3.00;;
41275;SDS011;27010;47.718;12.912;2023-03-13T00:16:57;8.33;;;3.10;;
41275;SDS011;27010;47.718;12.912;2023-03-13T00:19:59;4.63;;;2.30;;
41275;SDS011;27010;47.718;12.912;2023-03-13T00:23:02;6.80;;;2.67;;
41275;SDS011;27010;47.718;12.912;2023-03-13T00:26:05;9.77;;;3.67;;
41275;SDS011;27010;47.718;12.912;2023-03-13T00:29:08;20.37;;;8.30;;
41275;SDS011;27010;47.718;12.912;2023-03-13T00:32:10;36.37;;;13.50;;
41275;SDS011;27010;47.718;12.912;2023-03-13T00:35:13;37.73;;;13.17;;
41275;SDS011;27010;47.718;12.912;2023-03-13T00:38:15;28.80;;;11.53;;
41275;SDS011;27010;47.718;12.912;2023-03-13T00:41:21;24.27;;;8.70;;
41275;SDS011;27010;47.718;12.912;2023-03-13T00:44:24;17.13;;;6.00;;
41275;SDS011;27010;47.718;12.912;2023-03-13T00:47:26;16.43;;;5.83;;
41275;SDS011;27010;47.718;12.912;2023-03-13T00:50:28;14.43;;;6.27;;
41275;SDS011;27010;47.718;12.912;2023-03-13T00:53:30;22.77;;;7.77;;
41275;SDS011;27010;47.718;12.912;2023-03-13T00:56:33;40.27;;;13.27;;
41275;SDS011;27010;47.718;12.912;2023-03-13T00:59:35;16.00;;;5.90;;
41275;SDS011;27010;47.718;12.912;2023-03-13T01:02:41;21.17;;;7.13;;
41275;SDS011;27010;47.718;12.912;2023-03-13T01:05:44;19.20;;;5.77;;
41275;SDS011;27010;47.718;12.912;2023-03-13T01:08:47;15.67;;;5.10;;
41275;SDS011;27010;47.718;12.912;2023-03-13T01:11:49;20.13;;;4.60;;
41275;SDS011;27010;47.718;12.912;2023-03-13T01:14:51;12.23;;;3.87;;
41275;SDS011;27010;47.718;12.912;2023-03-13T01:17:53;4.17;;;1.77;;
41275;SDS011;27010;47.718;12.912;2023-03-13T01:20:55;4.57;;;2.30;;
41275;SDS011;27010;47.718;12.912;2023-03-13T01:23:57;4.60;;;2.73;;
41275;SDS011;27010;47.718;12.912;2023-03-13T01:26:59;1.53;;;0.97;;
41275;SDS011;27010;47.718;12.912;2023-03-13T01:30:01;1.57;;;1.20;;
41275;SDS011;27010;47.718;12.912;2023-03-13T01:33:03;1.83;;;1.13;;
41275;SDS011;27010;47.718;12.912;2023-03-13T01:36:05;1.63;;;0.90;;
41275;SDS011;27010;47.718;12.912;2023-03-13T01:39:08;2.10;;;1.00;;
41275;SDS011;27010;47.718;12.912;2023-03-13T01:42:10;2.60;;;1.83;;
41275;SDS011;27010;47.718;12.912;2023-03-13T01:52:00;3.17;;;1.07;;
41275;SDS011;27010;47.718;12.912;2023-03-13T01:55:06;2.50;;;0.90;;
41275;SDS011;27010;47.718;12.912;2023-03-13T01:58:10;1.57;;;0.60;;
41275;SDS011;27010;47.718;12.912;2023-03-13T02:01:12;1.67;;;0.50;;
41275;SDS011;27010;47.718;12.912;2023-03-13T02:04:14;2.30;;;0.60;;
41275;SDS011;27010;47.718;12.912;2023-03-13T02:07:21;1.63;;;0.70;;
41275;SDS011;27010;47.718;12.912;2023-03-13T02:10:25;0.80;;;0.50;;
41275;SDS011;27010;47.718;12.912;2023-03-13T02:13:30;1.53;;;0.50;;
41275;SDS011;27010;47.718;12.912;2023-03-13T02:16:33;1.23;;;0.53;;
41275;SDS011;27010;47.718;12.912;2023-03-13T02:19:41;1.67;;;0.73;;
41275;SDS011;27010;47.718;12.912;2023-03-13T02:26:33;1.17;;;0.50;;
41275;SDS011;27010;47.718;12.912;2023-03-13T02:29:35;2.70;;;0.50;;
41275;SDS011;27010;47.718;12.912;2023-03-13T02:32:37;0.70;;;0.70;;
41275;SDS011;27010;47.718;12.912;2023-03-13T02:35:40;0.60;;;0.60;;
41275;SDS011;27010;47.718;12.912;2023-03-13T02:38:46;1.57;;;0.70;;
41275;SDS011;27010;47.718;12.912;2023-03-13T02:41:58;0.50;;;0.50;;
41275;SDS011;27010;47.718;12.912;2023-03-13T02:45:01;1.70;;;0.60;;
41275;SDS011;27010;47.718;12.912;2023-03-13T02:48:03;3.93;;;0.60;;
41275;SDS011;27010;47.718;12.912;2023-03-13T02:51:09;0.63;;;0.50;;
41275;SDS011;27010;47.718;12.912;2023-03-13T02:54:32;0.70;;;0.50;;
41275;SDS011;27010;47.718;12.912;2023-03-13T02:57:34;2.30;;;0.63;;
41275;SDS011;27010;47.718;12.912;2023-03-13T03:00:37;2.93;;;0.80;;
41275;SDS011;27010;47.718;12.912;2023-03-13T03:08:01;1.13;;;0.60;;
41275;SDS011;27010;47.718;12.912;2023-03-13T03:11:03;1.33;;;0.60;;
41275;SDS011;27010;47.718;12.912;2023-03-13T03:14:05;1.17;;;1.10;;
41275;SDS011;27010;47.718;12.912;2023-03-13T03:17:08;0.93;;;0.77;;
41275;SDS011;27010;47.718;12.912;2023-03-13T03:20:10;0.77;;;0.70;;
41275;SDS011;27010;47.718;12.912;2023-03-13T03:23:12;0.60;;;0.50;;
41275;SDS011;27010;47.718;12.912;2023-03-13T03:26:14;0.93;;;0.83;;
41275;SDS011;27010;47.718;12.912;2023-03-13T03:29:16;1.27;;;0.80;;
41275;SDS011;27010;47.718;12.912;2023-03-13T03:32:18;3.13;;;0.90;;
41275;SDS011;27010;47.718;12.912;2023-03-13T03:35:21;1.47;;;0.50;;
41275;SDS011;27010;47.718;12.912;2023-03-13T03:38:23;1.27;;;0.63;;
41275;SDS011;27010;47.718;12.912;2023-03-13T03:41:25;1.90;;;0.70;;
41275;SDS011;27010;47.718;12.912;2023-03-13T03:44:27;1.93;;;0.77;;
41275;SDS011;27010;47.718;12.912;2023-03-13T03:47:29;3.53;;;0.60;;
41275;SDS011;27010;47.718;12.912;2023-03-13T03:50:31;1.27;;;0.60;;
41275;SDS011;27010;47.718;12.912;2023-03-13T03:53:33;0.70;;;0.50;;
41275;SDS011;27010;47.718;12.912;2023-03-13T03:56:35;1.37;;;0.40;;
41275;SDS011;27010;47.718;12.912;2023-03-13T03:59:37;1.27;;;0.30;;
41275;SDS011;27010;47.718;12.912;2023-03-13T04:02:39;0.63;;;0.40;;
41275;SDS011;27010;47.718;12.912;2023-03-13T04:05:41;1.67;;;0.40;;
41275;SDS011;27010;47.718;12.912;2023-03-13T04:08:43;0.50;;;0.33;;
41275;SDS011;27010;47.718;12.912;2023-03-13T04:11:45;2.50;;;0.70;;
41275;SDS011;27010;47.718;12.912;2023-03-13T04:14:47;1.80;;;0.90;;
41275;SDS011;27010;47.718;12.912;2023-03-13T04:17:49;1.00;;;0.50;;
41275;SDS011;27010;47.718;12.912;2023-03-13T04:20:58;3.90;;;1.47;;
41275;SDS011;27010;47.718;12.912;2023-03-13T04:24:04;1.93;;;1.17;;
41275;SDS011;27010;47.718;12.912;2023-03-13T04:27:06;1.13;;;0.57;;
41275;SDS011;27010;47.718;12.912;2023-03-13T04:30:08;0.77;;;0.40;;
41275;SDS011;27010;47.718;12.912;2023-03-13T04:33:11;1.47;;;0.40;;
41275;SDS011;27010;47.718;12.912;2023-03-13T04:36:15;4.07;;;0.43;;
41275;SDS011;27010;47.718;12.912;2023-03-13T04:39:16;1.30;;;0.40;;
41275;SDS011;27010;47.718;12.912;2023-03-13T04:42:18;1.63;;;0.40;;
41275;SDS011;27010;47.718;12.912;2023-03-13T04:45:20;0.50;;;0.33;;
41275;SDS011;27010;47.718;12.912;2023-03-13T04:48:22;0.83;;;0.60;;
41275;SDS011;27010;47.718;12.912;2023-03-13T04:51:24;1.07;;;0.60;;
41275;SDS011;27010;47.718;12.912;2023-03-13T04:54:27;3.50;;;0.40;;
41275;SDS011;27010;47.718;12.912;2023-03-13T04:57:28;0.67;;;0.60;;
41275;SDS011;27010;47.718;12.912;2023-03-13T05:00:30;2.27;;;0.30;;
41275;SDS011;27010;47.718;12.912;2023-03-13T05:03:32;1.90;;;0.40;;
41275;SDS011;27010;47.718;12.912;2023-03-13T05:06:34;0.93;;;0.20;;
41275;SDS011;27010;47.718;12.912;2023-03-13T05:09:37;2.80;;;0.40;;
41275;SDS011;27010;47.718;12.912;2023-03-13T05:12:38;0.77;;;0.40;;
41275;SDS011;27010;47.718;12.912;2023-03-13T05:15:40;2.00;;;0.40;;
41275;SDS011;27010;47.718;12.912;2023-03-13T05:18:42;1.33;;;0.60;;
41275;SDS011;27010;47.718;12.912;2023-03-13T05:21:44;1.03;;;0.43;;
41275;SDS011;27010;47.718;12.912;2023-03-13T05:24:46;0.40;;;0.40;;
41275;SDS011;27010;47.718;12.912;2023-03-13T05:27:48;0.80;;;0.40;;
41275;SDS011;27010;47.718;12.912;2023-03-13T05:30:50;1.63;;;0.63;;
41275;SDS011;27010;47.718;12.912;2023-03-13T05:33:52;1.13;;;0.50;;
41275;SDS011;27010;47.718;12.912;2023-03-13T05:36:54;0.57;;;0.47;;
41275;SDS011;27010;47.718;12.912;2023-03-13T05:39:56;1.63;;;0.50;;
41275;SDS011;27010;47.718;12.912;2023-03-13T05:42:57;1.87;;;0.43;;
41275;SDS011;27010;47.718;12.912;2023-03-13T05:46:00;1.13;;;0.37;;
41275;SDS011;27010;47.718;12.912;2023-03-13T05:49:02;1.00;;;0.60;;
41275;SDS011;27010;47.718;12.912;2023-03-13T05:52:04;1.50;;;0.60;;
41275;SDS011;27010;47.718;12.912;2023-03-13T05:55:06;1.10;;;0.50;;
41275;SDS011;27010;47.718;12.912;2023-03-13T05:58:08;0.70;;;0.43;;
41275;SDS011;27010;47.718;12.912;2023-03-13T06:01:11;1.53;;;0.50;;
41275;SDS011;27010;47.718;12.912;2023-03-13T06:04:14;1.60;;;0.50;;
41275;SDS011;27010;47.718;12.912;2023-03-13T06:07:16;1.20;;;0.50;;
41275;SDS011;27010;47.718;12.912;2023-03-13T06:10:18;0.50;;;0.40;;
41275;SDS011;27010;47.718;12.912;2023-03-13T06:13:19;1.00;;;0.60;;
41275;SDS011;27010;47.718;12.912;2023-03-13T06:16:21;0.40;;;0.33;;
41275;SDS011;27010;47.718;12.912;2023-03-13T06:19:23;2.73;;;0.47;;
41275;SDS011;27010;47.718;12.912;2023-03-13T06:22:26;0.90;;;0.50;;
41275;SDS011;27010;47.718;12.912;2023-03-13T06:25:28;1.13;;;0.47;;
41275;SDS011;27010;47.718;12.912;2023-03-13T06:28:30;0.63;;;0.60;;
41275;SDS011;27010;47.718;12.912;2023-03-13T06:31:32;0.93;;;0.30;;
41275;SDS011;27010;47.718;12.912;2023-03-13T06:34:34;0.70;;;0.47;;
41275;SDS011;27010;47.718;12.912;2023-03-13T06:37:36;2.37;;;0.50;;
41275;SDS011;27010;47.718;12.912;2023-03-13T06:40:38;1.77;;;0.80;;
41275;SDS011;27010;47.718;12.912;2023-03-13T06:43:40;1.07;;;0.60;;
41275;SDS011;27010;47.718;12.912;2023-03-13T06:46:42;4.30;;;0.73;;
41275;SDS011;27010;47.718;12.912;2023-03-13T06:49:44;1.63;;;0.60;;
41275;SDS011;27010;47.718;12.912;2023-03-13T06:52:46;2.27;;;0.80;;
41275;SDS011;27010;47.718;12.912;2023-03-13T06:55:49;0.90;;;0.60;;
41275;SDS011;27010;47.718;12.912;2023-03-13T06:58:51;1.73;;;0.80;;
41275;SDS011;27010;47.718;12.912;2023-03-13T07:01:53;0.93;;;0.77;;
41275;SDS011;27010;47.718;12.912;2023-03-13T07:04:56;3.60;;;0.60;;
41275;SDS011;27010;47.718;12.912;2023-03-13T07:07:58;2.07;;;0.83;;
41275;SDS011;27010;47.718;12.912;2023-03-13T07:11:01;0.67;;;0.53;;
41275;SDS011;27010;47.718;12.912;2023-03-13T07:14:04;0.77;;;0.63;;
41275;SDS011;27010;47.718;12.912;2023-03-13T07:17:17;1.13;;;0.50;;
41275;SDS011;27010;47.718;12.912;2023-03-13T07:20:19;1.57;;;0.70;;
41275;SDS011;27010;47.718;12.912;2023-03-13T07:23:22;0.40;;;0.40;;
41275;SDS011;27010;47.718;12.912;2023-03-13T07:26:24;0.73;;;0.60;;
41275;SDS011;27010;47.718;12.912;2023-03-13T07:29:26;0.80;;;0.60;;
41275;SDS011;27010;47.718;12.912;2023-03-13T07:32:31;0.50;;;0.43;;
41275;SDS011;27010;47.718;12.912;2023-03-13T07:35:34;0.50;;;0.47;;
41275;SDS011;27010;47.718;12.912;2023-03-13T07:38:40;0.70;;;0.43;;
41275;SDS011;27010;47.718;12.912;2023-03-13T07:41:44;2.80;;;0.50;;
41275;SDS011;27010;47.718;12.912;2023-03-13T07:44:46;0.40;;;0.40;;
41275;SDS011;27010;47.718;12.912;2023-03-13T07:47:49;1.10;;;0.60;;
41275;SDS011;27010;47.718;12.912;2023-03-13T07:50:52;0.63;;;0.40;;
41275;SDS011;27010;47.718;12.912;2023-03-13T07:53:55;1.90;;;0.50;;
41275;SDS011;27010;47.718;12.912;2023-03-13T07:56:57;1.20;;;0.60;;
41275;SDS011;27010;47.718;12.912;2023-03-13T07:59:59;0.70;;;0.50;;
41275;SDS011;27010;47.718;12.912;2023-03-13T08:03:01;0.47;;;0.30;;
41275;SDS011;27010;47.718;12.912;2023-03-13T08:06:06;0.77;;;0.30;;
41275;SDS011;27010;47.718;12.912;2023-03-13T08:09:10;0.90;;;0.53;;
41275;SDS011;27010;47.718;12.912;2023-03-13T08:12:12;0.60;;;0.50;;
41275;SDS011;27010;47.718;12.912;2023-03-13T08:15:15;0.90;;;0.47;;
41275;SDS011;27010;47.718;12.912;2023-03-13T08:18:19;0.83;;;0.47;;
41275;SDS011;27010;47.718;12.912;2023-03-13T08:21:25;0.40;;;0.40;;
41275;SDS011;27010;47.718;12.912;2023-03-13T08:24:28;2.50;;;0.50;;
41275;SDS011;27010;47.718;12.912;2023-03-13T08:27:30;0.87;;;0.70;;
41275;SDS011;27010;47.718;12.912;2023-03-13T08:30:32;0.67;;;0.60;;
41275;SDS011;27010;47.718;12.912;2023-03-13T08:33:34;0.60;;;0.60;;
41275;SDS011;27010;47.718;12.912;2023-03-13T08:36:37;0.60;;;0.50;;
41275;SDS011;27010;47.718;12.912;2023-03-13T08:39:39;0.80;;;0.33;;
41275;SDS011;27010;47.718;12.912;2023-03-13T08:42:42;2.13;;;0.50;;
41275;SDS011;27010;47.718;12.912;2023-03-13T08:45:44;0.70;;;0.63;;
41275;SDS011;27010;47.718;12.912;2023-03-13T08:48:50;0.60;;;0.50;;
41275;SDS011;27010;47.718;12.912;2023-03-13T08:51:52;0.60;;;0.57;;
41275;SDS011;27010;47.718;12.912;2023-03-13T08:54:54;0.90;;;0.50;;
41275;SDS011;27010;47.718;12.912;2023-03-13T08:57:56;0.90;;;0.60;;
41275;SDS011;27010;47.718;12.912;2023-03-13T09:01:02;0.40;;;0.30;;
41275;SDS011;27010;47.718;12.912;2023-03-13T09:04:09;1.07;;;0.47;;
41275;SDS011;27010;47.718;12.912;2023-03-13T09:07:11;6.63;;;2.90;;
41275;SDS011;27010;47.718;12.912;2023-03-13T09:10:13;0.77;;;0.40;;
41275;SDS011;27010;47.718;12.912;2023-03-13T09:13:15;1.70;;;0.40;;
41275;SDS011;27010;47.718;12.912;2023-03-13T09:16:21;3.13;;;0.70;;
41275;SDS011;27010;47.718;12.912;2023-03-13T09:19:24;4.83;;;2.80;;
41275;SDS011;27010;47.718;12.912;2023-03-13T09:22:26;4.17;;;2.50;;
41275;SDS011;27010;47.718;12.912;2023-03-13T09:25:28;2.60;;;2.00;;
41275;SDS011;27010;47.718;12.912;2023-03-13T09:28:30;0.93;;;0.90;;
41275;SDS011;27010;47.718;12.912;2023-03-13T09:31:32;1.77;;;0.50;;
41275;SDS011;27010;47.718;12.912;2023-03-13T09:34:34;0.90;;;0.70;;
41275;SDS011;27010;47.718;12.912;2023-03-13T09:37:36;0.87;;;0.50;;
41275;SDS011;27010;47.718;12.912;2023-03-13T09:40:43;0.53;;;0.50;;
41275;SDS011;27010;47.718;12.912;2023-03-13T09:47:20;0.70;;;0.70;;
41275;SDS011;27010;47.718;12.912;2023-03-13T09:50:34;1.00;;;0.60;;
41275;SDS011;27010;47.718;12.912;2023-03-13T09:53:40;0.87;;;0.60;;
41275;SDS011;27010;47.718;12.912;2023-03-13T10:00:11;0.80;;;0.50;;
41275;SDS011;27010;47.718;12.912;2023-03-13T10:03:28;0.77;;;0.50;;
41275;SDS011;27010;47.718;12.912;2023-03-13T10:06:37;3.90;;;0.40;;
41275;SDS011;27010;47.718;12.912;2023-03-13T10:09:41;0.70;;;0.50;;
41275;SDS011;27010;47.718;12.912;2023-03-13T10:12:44;1.80;;;1.00;;
41275;SDS011;27010;47.718;12.912;2023-03-13T10:18:57;3.73;;;0.70;;
41275;SDS011;27010;47.718;12.912;2023-03-13T10:22:01;2.57;;;0.67;;
41275;SDS011;27010;47.718;12.912;2023-03-13T10:25:05;0.40;;;0.40;;
41275;SDS011;27010;47.718;12.912;2023-03-13T10:28:13;1.57;;;1.43;;
41275;SDS011;27010;47.718;12.912;2023-03-13T10:31:21;0.70;;;0.60;;
41275;SDS011;27010;47.718;12.912;2023-03-13T10:34:30;2.00;;;0.50;;
41275;SDS011;27010;47.718;12.912;2023-03-13T10:37:59;0.83;;;0.60;;
41275;SDS011;27010;47.718;12.912;2023-03-13T10:41:06;5.03;;;0.67;;
41275;SDS011;27010;47.718;12.912;2023-03-13T10:44:20;0.90;;;0.60;;
41275;SDS011;27010;47.718;12.912;2023-03-13T10:47:23;0.57;;;0.50;;
41275;SDS011;27010;47.718;12.912;2023-03-13T10:50:26;2.00;;;0.43;;
41275;SDS011;27010;47.718;12.912;2023-03-13T10:56:30;2.13;;;0.70;;
41275;SDS011;27010;47.718;12.912;2023-03-13T10:59:33;0.70;;;0.70;;
41275;SDS011;27010;47.718;12.912;2023-03-13T11:02:40;0.50;;;0.40;;
41275;SDS011;27010;47.718;12.912;2023-03-13T11:05:58;0.80;;;0.60;;
41275;SDS011;27010;47.718;12.912;2023-03-13T11:09:12;0.47;;;0.47;;
41275;SDS011;27010;47.718;12.912;2023-03-13T11:12:19;1.53;;;0.40;;
41275;SDS011;27010;47.718;12.912;2023-03-13T11:15:25;0.90;;;0.50;;
41275;SDS011;27010;47.718;12.912;2023-03-13T11:18:39;0.40;;;0.40;;
41275;SDS011;27010;47.718;12.912;2023-03-13T11:21:56;0.50;;;0.40;;
41275;SDS011;27010;47.718;12.912;2023-03-13T11:25:21;1.47;;;0.60;;
41275;SDS011;27010;47.718;12.912;2023-03-13T11:28:45;1.77;;;0.40;;
41275;SDS011;27010;47.718;12.912;2023-03-13T11:32:42;0.80;;;0.80;;
41275;SDS011;27010;47.718;12.912;2023-03-13T11:35:46;0.50;;;0.50;;
41275;SDS011;27010;47.718;12.912;2023-03-13T11:38:52;1.80;;;0.70;;
41275;SDS011;27010;47.718;12.912;2023-03-13T11:42:06;1.73;;;0.50;;
41275;SDS011;27010;47.718;12.912;2023-03-13T11:55:28;1.10;;;0.70;;
41275;SDS011;27010;47.718;12.912;2023-03-13T12:01:52;0.70;;;0.70;;
41275;SDS011;27010;47.718;12.912;2023-03-13T12:05:17;1.47;;;1.17;;
41275;SDS011;27010;47.718;12.912;2023-03-13T12:08:25;1.10;;;0.50;;
41275;SDS011;27010;47.718;12.912;2023-03-13T12:11:37;0.67;;;0.40;;
41275;SDS011;27010;47.718;12.912;2023-03-13T12:14:52;1.33;;;0.40;;
41275;SDS011;27010;47.718;12.912;2023-03-13T12:21:36;0.40;;;0.33;;
41275;SDS011;27010;47.718;12.912;2023-03-13T12:24:50;0.73;;;0.30;;
41275;SDS011;27010;47.718;12.912;2023-03-13T12:27:57;0.60;;;0.47;;
41275;SDS011;27010;47.718;12.912;2023-03-13T12:34:35;1.00;;;0.50;;
41275;SDS011;27010;47.718;12.912;2023-03-13T12:37:46;2.20;;;1.50;;
41275;SDS011;27010;47.718;12.912;2023-03-13T12:41:00;2.10;;;0.70;;
41275;SDS011;27010;47.718;12.912;2023-03-13T12:44:31;0.80;;;0.80;;
41275;SDS011;27010;47.718;12.912;2023-03-13T12:47:50;1.50;;;0.90;;
41275;SDS011;27010;47.718;12.912;2023-03-13T12:54:40;1.77;;;0.70;;
41275;SDS011;27010;47.718;12.912;2023-03-13T12:58:41;0.50;;;0.40;;
41275;SDS011;27010;47.718;12.912;2023-03-13T13:01:32;0.70;;;0.50;;
41275;SDS011;27010;47.718;12.912;2023-03-13T13:04:40;0.38;;;0.38;;
41275;SDS011;27010;47.718;12.912;2023-03-13T13:07:52;0.65;;;0.43;;
41275;SDS011;27010;47.718;12.912;2023-03-13T13:11:14;2.28;;;0.52;;
41275;SDS011;27010;47.718;12.912;2023-03-13T13:15:24;0.52;;;0.40;;
41275;SDS011;27010;47.718;12.912;2023-03-13T13:18:22;0.30;;;0.30;;
41275;SDS011;27010;47.718;12.912;2023-03-13T13:21:26;0.55;;;0.30;;
41275;SDS011;27010;47.718;12.912;2023-03-13T13:24:38;0.30;;;0.28;;
41275;SDS011;27010;47.718;12.912;2023-03-13T13:30:43;0.30;;;0.20;;
41275;SDS011;27010;47.718;12.912;2023-03-13T13:33:45;0.55;;;0.38;;
41275;SDS011;27010;47.718;12.912;2023-03-13T13:36:47;0.70;;;0.35;;
41275;SDS011;27010;47.718;12.912;2023-03-13T13:39:50;0.75;;;0.47;;
41275;SDS011;27010;47.718;12.912;2023-03-13T13:42:55;1.00;;;0.40;;
41275;SDS011;27010;47.718;12.912;2023-03-13T13:49:15;0.50;;;0.30;;
41275;SDS011;27010;47.718;12.912;2023-03-13T13:52:29;0.50;;;0.50;;
41275;SDS011;27010;47.718;12.912;2023-03-13T13:58:39;0.70;;;0.60;;
41275;SDS011;27010;47.718;12.912;2023-03-13T14:01:45;1.13;;;0.65;;
41275;SDS011;27010;47.718;12.912;2023-03-13T14:14:23;0.68;;;0.60;;
41275;SDS011;27010;47.718;12.912;2023-03-13T14:17:27;1.47;;;0.77;;
41275;SDS011;27010;47.718;12.912;2023-03-13T14:20:31;0.68;;;0.40;;
41275;SDS011;27010;47.718;12.912;2023-03-13T14:23:36;1.25;;;0.70;;
41275;SDS011;27010;47.718;12.912;2023-03-13T14:26:45;1.00;;;0.55;;
41275;SDS011;27010;47.718;12.912;2023-03-13T14:30:00;1.38;;;0.57;;
41275;SDS011;27010;47.718;12.912;2023-03-13T14:33:04;2.58;;;0.50;;
41275;SDS011;27010;47.718;12.912;2023-03-13T14:36:06;0.95;;;0.70;;
41275;SDS011;27010;47.718;12.912;2023-03-13T14:39:11;0.65;;;0.55;;
41275;SDS011;27010;47.718;12.912;2023-03-13T14:42:18;0.70;;;0.60;;
41275;SDS011;27010;47.718;12.912;2023-03-13T14:45:42;0.60;;;0.50;;
41275;SDS011;27010;47.718;12.912;2023-03-13T14:48:42;0.65;;;0.55;;
41275;SDS011;27010;47.718;12.912;2023-03-13T14:51:44;0.90;;;0.60;;
41275;SDS011;27010;47.718;12.912;2023-03-13T14:54:51;0.60;;;0.50;;
41275;SDS011;27010;47.718;12.912;2023-03-13T14:58:03;0.75;;;0.50;;
41275;SDS011;27010;47.718;12.912;2023-03-13T15:01:11;0.40;;;0.40;;
41275;SDS011;27010;47.718;12.912;2023-03-13T15:04:46;1.65;;;0.55;;
41275;SDS011;27010;47.718;12.912;2023-03-13T15:08:01;0.68;;;0.50;;
41275;SDS011;27010;47.718;12.912;2023-03-13T15:11:16;0.47;;;0.40;;
41275;SDS011;27010;47.718;12.912;2023-03-13T15:14:33;1.35;;;0.80;;
41275;SDS011;27010;47.718;12.912;2023-03-13T15:17:36;1.77;;;0.50;;
41275;SDS011;27010;47.718;12.912;2023-03-13T15:20:38;0.77;;;0.40;;
41275;SDS011;27010;47.718;12.912;2023-03-13T15:23:41;1.60;;;0.52;;
41275;SDS011;27010;47.718;12.912;2023-03-13T15:26:43;3.63;;;0.70;;
41275;SDS011;27010;47.718;12.912;2023-03-13T15:29:49;1.55;;;0.60;;
41275;SDS011;27010;47.718;12.912;2023-03-13T15:32:51;3.55;;;0.75;;
41275;SDS011;27010;47.718;12.912;2023-03-13T15:35:53;3.58;;;0.90;;
41275;SDS011;27010;47.718;12.912;2023-03-13T15:38:56;0.90;;;0.77;;
41275;SDS011;27010;47.718;12.912;2023-03-13T15:42:00;3.80;;;0.85;;
41275;SDS011;27010;47.718;12.912;2023-03-13T15:45:02;2.97;;;0.45;;
41275;SDS011;27010;47.718;12.912;2023-03-13T15:48:26;2.22;;;0.63;;
41275;SDS011;27010;47.718;12.912;2023-03-13T15:51:32;1.60;;;0.70;;
41275;SDS011;27010;47.718;12.912;2023-03-13T15:54:34;0.87;;;0.60;;
41275;SDS011;27010;47.718;12.912;2023-03-13T15:57:40;3.47;;;0.70;;
41275;SDS011;27010;47.718;12.912;2023-03-13T16:00:45;1.03;;;0.80;;
41275;SDS011;27010;47.718;12.912;2023-03-13T16:03:49;2.53;;;0.60;;
41275;SDS011;27010;47.718;12.912;2023-03-13T16:06:51;2.03;;;0.63;;
41275;SDS011;27010;47.718;12.912;2023-03-13T16:09:53;1.97;;;0.90;;
41275;SDS011;27010;47.718;12.912;2023-03-13T16:12:55;1.97;;;0.70;;
41275;SDS011;27010;47.718;12.912;2023-03-13T16:15:57;2.60;;;1.03;;
41275;SDS011;27010;47.718;12.912;2023-03-13T16:18:59;0.80;;;0.67;;
41275;SDS011;27010;47.718;12.912;2023-03-13T16:22:01;1.30;;;1.10;;
41275;SDS011;27010;47.718;12.912;2023-03-13T16:25:03;1.93;;;0.53;;
41275;SDS011;27010;47.718;12.912;2023-03-13T16:28:05;3.67;;;0.70;;
41275;SDS011;27010;47.718;12.912;2023-03-13T16:31:17;1.03;;;0.70;;
41275;SDS011;27010;47.718;12.912;2023-03-13T16:34:29;2.03;;;0.60;;
41275;SDS011;27010;47.718;12.912;2023-03-13T16:37:31;2.97;;;0.60;;
41275;SDS011;27010;47.718;12.912;2023-03-13T16:40:33;2.03;;;0.43;;
41275;SDS011;27010;47.718;12.912;2023-03-13T16:43:35;4.07;;;0.63;;
41275;SDS011;27010;47.718;12.912;2023-03-13T16:46:38;0.87;;;0.77;;
41275;SDS011;27010;47.718;12.912;2023-03-13T16:49:50;1.93;;;0.60;;
41275;SDS011;27010;47.718;12.912;2023-03-13T16:52:52;2.10;;;0.60;;
41275;SDS011;27010;47.718;12.912;2023-03-13T16:55:54;2.77;;;0.80;;
41275;SDS011;27010;47.718;12.912;2023-03-13T16:58:57;4.30;;;0.77;;
41275;SDS011;27010;47.718;12.912;2023-03-13T17:02:03;2.40;;;0.70;;
41275;SDS011;27010;47.718;12.912;2023-03-13T17:05:05;2.00;;;0.93;;
41275;SDS011;27010;47.718;12.912;2023-03-13T17:08:08;5.90;;;0.90;;
41275;SDS011;27010;47.718;12.912;2023-03-13T17:11:11;1.63;;;0.70;;
41275;SDS011;27010;47.718;12.912;2023-03-13T17:14:18;0.87;;;0.50;;
41275;SDS011;27010;47.718;12.912;2023-03-13T17:17:20;4.10;;;0.50;;
41275;SDS011;27010;47.718;12.912;2023-03-13T17:20:24;2.60;;;0.60;;
41275;SDS011;27010;47.718;12.912;2023-03-13T17:23:27;2.03;;;0.67;;
41275;SDS011;27010;47.718;12.912;2023-03-13T17:26:33;1.13;;;0.67;;
41275;SDS011;27010;47.718;12.912;2023-03-13T17:29:37;2.13;;;0.60;;
41275;SDS011;27010;47.718;12.912;2023-03-13T17:32:39;0.63;;;0.50;;
41275;SDS011;27010;47.718;12.912;2023-03-13T17:35:41;3.33;;;2.10;;
41275;SDS011;27010;47.718;12.912;2023-03-13T17:38:43;2.80;;;0.67;;
41275;SDS011;27010;47.718;12.912;2023-03-13T17:41:46;2.20;;;0.60;;
41275;SDS011;27010;47.718;12.912;2023-03-13T17:44:48;6.27;;;0.70;;
41275;SDS011;27010;47.718;12.912;2023-03-13T17:47:50;2.00;;;0.40;;
41275;SDS011;27010;47.718;12.912;2023-03-13T17:50:54;4.23;;;0.63;;
41275;SDS011;27010;47.718;12.912;2023-03-13T17:53:56;2.67;;;0.90;;
41275;SDS011;27010;47.718;12.912;2023-03-13T17:56:58;1.23;;;0.70;;
41275;SDS011;27010;47.718;12.912;2023-03-13T18:00:00;2.53;;;0.77;;
41275;SDS011;27010;47.718;12.912;2023-03-13T18:03:03;3.77;;;1.03;;
41275;SDS011;27010;47.718;12.912;2023-03-13T18:06:05;2.07;;;1.00;;
41275;SDS011;27010;47.718;12.912;2023-03-13T18:09:10;2.53;;;0.77;;
41275;SDS011;27010;47.718;12.912;2023-03-13T18:12:18;1.03;;;0.50;;
41275;SDS011;27010;47.718;12.912;2023-03-13T18:15:20;2.50;;;0.80;;
41275;SDS011;27010;47.718;12.912;2023-03-13T18:18:23;0.80;;;0.80;;
41275;SDS011;27010;47.718;12.912;2023-03-13T18:21:25;1.13;;;0.90;;
41275;SDS011;27010;47.718;12.912;2023-03-13T18:24:27;1.23;;;0.57;;
41275;SDS011;27010;47.718;12.912;2023-03-13T18:27:29;1.00;;;0.53;;
41275;SDS011;27010;47.718;12.912;2023-03-13T18:30:32;2.30;;;0.70;;
41275;SDS011;27010;47.718;12.912;2023-03-13T18:33:34;8.63;;;0.63;;
41275;SDS011;27010;47.718;12.912;2023-03-13T18:36:36;2.80;;;0.60;;
41275;SDS011;27010;47.718;12.912;2023-03-13T18:39:39;1.10;;;0.73;;
41275;SDS011;27010;47.718;12.912;2023-03-13T18:42:40;3.50;;;1.30;;
41275;SDS011;27010;47.718;12.912;2023-03-13T18:45:42;4.77;;;0.70;;
41275;SDS011;27010;47.718;12.912;2023-03-13T18:48:45;0.97;;;0.47;;
41275;SDS011;27010;47.718;12.912;2023-03-13T18:51:48;0.97;;;0.53;;
41275;SDS011;27010;47.718;12.912;2023-03-13T18:54:50;1.70;;;0.60;;
41275;SDS011;27010;47.718;12.912;2023-03-13T18:57:53;5.80;;;2.33;;
41275;SDS011;27010;47.718;12.912;2023-03-13T19:00:55;1.77;;;1.13;;
41275;SDS011;27010;47.718;12.912;2023-03-13T19:03:58;2.10;;;0.30;;
41275;SDS011;27010;47.718;12.912;2023-03-13T19:07:01;0.83;;;0.73;;
41275;SDS011;27010;47.718;12.912;2023-03-13T19:10:05;0.60;;;0.40;;
41275;SDS011;27010;47.718;12.912;2023-03-13T19:13:26;0.60;;;0.60;;
41275;SDS011;27010;47.718;12.912;2023-03-13T19:16:32;1.00;;;0.57;;
41275;SDS011;27010;47.718;12.912;2023-03-13T19:19:38;1.00;;;0.70;;
41275;SDS011;27010;47.718;12.912;2023-03-13T19:22:40;1.50;;;0.80;;
41275;SDS011;27010;47.718;12.912;2023-03-13T19:25:42;3.77;;;0.90;;
41275;SDS011;27010;47.718;12.912;2023-03-13T19:28:44;1.23;;;0.77;;